sensor_id;sensor_type;location;lat;lon;timestamp;P1;durP1;ratioP1;P2;durP2;ratioP2
80926;SDS011;70385;44.538;18.532;2023-09-19T00:00:55;24.92;;;15.05;;
80926;SDS011;70385;44.538;18.532;2023-09-19T00:03:22;25.60;;;18.17;;
80926;SDS011;70385;44.538;18.532;2023-09-19T00:05:50;23.50;;;17.10;;
80926;SDS011;70385;44.538;18.532;2023-09-19T00:08:16;22.58;;;17.02;;
80926;SDS011;70385;44.538;18.532;2023-09-19T00:10:42;25.88;;;17.77;;
80926;SDS011;70385;44.538;18.532;2023-09-19T00:13:09;24.95;;;18.33;;
80926;SDS011;70385;44.538;18.532;2023-09-19T00:15:45;27.50;;;17.52;;
80926;SDS011;70385;44.538;18.532;2023-09-19T00:18:15;33.90;;;17.85;;
80926;SDS011;70385;44.538;18.532;2023-09-19T00:20:42;25.65;;;18.48;;
80926;SDS011;70385;44.538;18.532;2023-09-19T00:23:09;24.73;;;16.50;;
80926;SDS011;70385;44.538;18.532;2023-09-19T00:25:35;28.90;;;15.95;;
80926;SDS011;70385;44.538;18.532;2023-09-19T00:28:03;29.45;;;17.80;;
80926;SDS011;70385;44.538;18.532;2023-09-19T00:30:30;22.33;;;17.00;;
80926;SDS011;70385;44.538;18.532;2023-09-19T00:32:56;22.30;;;17.38;;
80926;SDS011;70385;44.538;18.532;2023-09-19T00:35:22;25.60;;;17.83;;
80926;SDS011;70385;44.538;18.532;2023-09-19T00:37:51;23.85;;;16.73;;
80926;SDS011;70385;44.538;18.532;2023-09-19T00:40:17;27.20;;;18.10;;
80926;SDS011;70385;44.538;18.532;2023-09-19T00:42:47;24.48;;;15.82;;
80926;SDS011;70385;44.538;18.532;2023-09-19T00:45:16;23.48;;;17.77;;
80926;SDS011;70385;44.538;18.532;2023-09-19T00:47:44;26.67;;;17.77;;
80926;SDS011;70385;44.538;18.532;2023-09-19T00:50:16;31.90;;;18.13;;
80926;SDS011;70385;44.538;18.532;2023-09-19T00:52:48;23.88;;;16.52;;
80926;SDS011;70385;44.538;18.532;2023-09-19T00:55:17;28.95;;;17.05;;
80926;SDS011;70385;44.538;18.532;2023-09-19T00:57:47;24.05;;;17.83;;
80926;SDS011;70385;44.538;18.532;2023-09-19T01:00:15;24.92;;;18.63;;
80926;SDS011;70385;44.538;18.532;2023-09-19T01:02:41;24.92;;;17.48;;
80926;SDS011;70385;44.538;18.532;2023-09-19T01:05:09;23.35;;;17.38;;
80926;SDS011;70385;44.538;18.532;2023-09-19T01:07:36;23.88;;;17.92;;
80926;SDS011;70385;44.538;18.532;2023-09-19T01:10:08;27.13;;;17.90;;
80926;SDS011;70385;44.538;18.532;2023-09-19T01:28:43;21.00;;;17.42;;
80926;SDS011;70385;44.538;18.532;2023-09-19T01:31:19;24.27;;;16.85;;
80926;SDS011;70385;44.538;18.532;2023-09-19T01:36:33;23.50;;;15.40;;
80926;SDS011;70385;44.538;18.532;2023-09-19T01:39:02;24.13;;;15.63;;
80926;SDS011;70385;44.538;18.532;2023-09-19T01:41:55;27.10;;;18.00;;
80926;SDS011;70385;44.538;18.532;2023-09-19T01:47:19;25.52;;;17.17;;
80926;SDS011;70385;44.538;18.532;2023-09-19T01:49:51;25.67;;;16.90;;
80926;SDS011;70385;44.538;18.532;2023-09-19T01:52:30;21.48;;;16.02;;
80926;SDS011;70385;44.538;18.532;2023-09-19T01:55:08;28.45;;;17.85;;
80926;SDS011;70385;44.538;18.532;2023-09-19T01:57:40;23.25;;;16.80;;
80926;SDS011;70385;44.538;18.532;2023-09-19T02:00:15;22.60;;;17.10;;
80926;SDS011;70385;44.538;18.532;2023-09-19T02:02:44;29.90;;;19.40;;
80926;SDS011;70385;44.538;18.532;2023-09-19T02:05:22;27.25;;;19.17;;
80926;SDS011;70385;44.538;18.532;2023-09-19T02:07:49;27.33;;;18.90;;
80926;SDS011;70385;44.538;18.532;2023-09-19T02:10:16;23.60;;;16.83;;
80926;SDS011;70385;44.538;18.532;2023-09-19T02:12:42;23.00;;;19.15;;
80926;SDS011;70385;44.538;18.532;2023-09-19T02:15:08;28.80;;;19.05;;
80926;SDS011;70385;44.538;18.532;2023-09-19T02:17:43;22.20;;;17.77;;
80926;SDS011;70385;44.538;18.532;2023-09-19T02:20:10;26.02;;;17.75;;
80926;SDS011;70385;44.538;18.532;2023-09-19T02:22:43;24.27;;;18.02;;
80926;SDS011;70385;44.538;18.532;2023-09-19T02:25:11;30.23;;;20.10;;
80926;SDS011;70385;44.538;18.532;2023-09-19T02:27:36;27.30;;;19.40;;
80926;SDS011;70385;44.538;18.532;2023-09-19T02:30:03;25.17;;;18.65;;
80926;SDS011;70385;44.538;18.532;2023-09-19T02:32:31;26.92;;;19.80;;
80926;SDS011;70385;44.538;18.532;2023-09-19T02:35:02;30.08;;;20.17;;
80926;SDS011;70385;44.538;18.532;2023-09-19T02:37:30;25.80;;;19.42;;
80926;SDS011;70385;44.538;18.532;2023-09-19T02:39:58;30.10;;;19.60;;
80926;SDS011;70385;44.538;18.532;2023-09-19T02:42:24;23.60;;;18.38;;
80926;SDS011;70385;44.538;18.532;2023-09-19T02:44:50;26.63;;;17.48;;
80926;SDS011;70385;44.538;18.532;2023-09-19T02:47:16;27.50;;;17.85;;
80926;SDS011;70385;44.538;18.532;2023-09-19T02:49:42;25.58;;;17.65;;
80926;SDS011;70385;44.538;18.532;2023-09-19T02:52:09;30.27;;;18.30;;
80926;SDS011;70385;44.538;18.532;2023-09-19T02:54:36;26.27;;;16.73;;
80926;SDS011;70385;44.538;18.532;2023-09-19T02:57:03;29.48;;;19.92;;
80926;SDS011;70385;44.538;18.532;2023-09-19T02:59:32;26.48;;;18.75;;
80926;SDS011;70385;44.538;18.532;2023-09-19T03:01:57;30.65;;;18.77;;
80926;SDS011;70385;44.538;18.532;2023-09-19T03:04:26;25.40;;;16.45;;
80926;SDS011;70385;44.538;18.532;2023-09-19T03:06:53;30.88;;;20.98;;
80926;SDS011;70385;44.538;18.532;2023-09-19T03:09:24;32.85;;;22.00;;
80926;SDS011;70385;44.538;18.532;2023-09-19T03:11:50;33.90;;;21.58;;
80926;SDS011;70385;44.538;18.532;2023-09-19T03:14:15;27.95;;;20.27;;
80926;SDS011;70385;44.538;18.532;2023-09-19T03:16:43;25.13;;;18.27;;
80926;SDS011;70385;44.538;18.532;2023-09-19T03:19:12;29.70;;;19.50;;
80926;SDS011;70385;44.538;18.532;2023-09-19T03:21:40;27.00;;;19.27;;
80926;SDS011;70385;44.538;18.532;2023-09-19T03:24:06;30.55;;;20.73;;
80926;SDS011;70385;44.538;18.532;2023-09-19T03:26:32;24.50;;;17.23;;
80926;SDS011;70385;44.538;18.532;2023-09-19T03:28:59;26.83;;;16.02;;
80926;SDS011;70385;44.538;18.532;2023-09-19T03:31:32;27.10;;;17.95;;
80926;SDS011;70385;44.538;18.532;2023-09-19T03:33:58;27.75;;;18.38;;
80926;SDS011;70385;44.538;18.532;2023-09-19T03:36:24;30.73;;;19.13;;
80926;SDS011;70385;44.538;18.532;2023-09-19T03:38:53;41.17;;;20.65;;
80926;SDS011;70385;44.538;18.532;2023-09-19T03:41:19;30.02;;;19.25;;
80926;SDS011;70385;44.538;18.532;2023-09-19T03:43:45;28.42;;;19.17;;
80926;SDS011;70385;44.538;18.532;2023-09-19T03:46:12;33.35;;;20.95;;
80926;SDS011;70385;44.538;18.532;2023-09-19T03:48:41;30.40;;;19.10;;
80926;SDS011;70385;44.538;18.532;2023-09-19T03:51:09;34.05;;;20.02;;
80926;SDS011;70385;44.538;18.532;2023-09-19T03:53:36;33.17;;;20.85;;
80926;SDS011;70385;44.538;18.532;2023-09-19T03:56:02;35.28;;;21.42;;
80926;SDS011;70385;44.538;18.532;2023-09-19T03:58:30;39.15;;;20.50;;
80926;SDS011;70385;44.538;18.532;2023-09-19T04:00:57;33.35;;;19.25;;
80926;SDS011;70385;44.538;18.532;2023-09-19T04:03:26;28.75;;;18.13;;
80926;SDS011;70385;44.538;18.532;2023-09-19T04:06:01;26.30;;;17.48;;
80926;SDS011;70385;44.538;18.532;2023-09-19T04:08:28;39.67;;;18.55;;
80926;SDS011;70385;44.538;18.532;2023-09-19T04:10:54;30.92;;;18.05;;
80926;SDS011;70385;44.538;18.532;2023-09-19T04:13:22;35.80;;;17.80;;
80926;SDS011;70385;44.538;18.532;2023-09-19T04:15:47;32.20;;;18.20;;
80926;SDS011;70385;44.538;18.532;2023-09-19T04:18:15;27.25;;;18.08;;
80926;SDS011;70385;44.538;18.532;2023-09-19T04:20:47;31.63;;;18.60;;
80926;SDS011;70385;44.538;18.532;2023-09-19T04:23:14;34.13;;;19.05;;
80926;SDS011;70385;44.538;18.532;2023-09-19T04:25:40;39.00;;;19.90;;
80926;SDS011;70385;44.538;18.532;2023-09-19T04:28:07;31.15;;;19.55;;
80926;SDS011;70385;44.538;18.532;2023-09-19T04:30:33;33.45;;;20.90;;
80926;SDS011;70385;44.538;18.532;2023-09-19T04:32:59;38.72;;;20.48;;
80926;SDS011;70385;44.538;18.532;2023-09-19T04:35:28;30.90;;;20.38;;
80926;SDS011;70385;44.538;18.532;2023-09-19T04:38:00;35.28;;;20.20;;
80926;SDS011;70385;44.538;18.532;2023-09-19T04:40:26;40.25;;;20.88;;
80926;SDS011;70385;44.538;18.532;2023-09-19T04:42:56;30.35;;;18.83;;
80926;SDS011;70385;44.538;18.532;2023-09-19T04:45:22;24.08;;;17.40;;
80926;SDS011;70385;44.538;18.532;2023-09-19T04:47:48;32.63;;;17.95;;
80926;SDS011;70385;44.538;18.532;2023-09-19T04:50:16;40.15;;;20.83;;
80926;SDS011;70385;44.538;18.532;2023-09-19T04:52:49;44.75;;;22.30;;
80926;SDS011;70385;44.538;18.532;2023-09-19T04:55:16;42.13;;;22.13;;
80926;SDS011;70385;44.538;18.532;2023-09-19T04:57:44;30.30;;;19.38;;
80926;SDS011;70385;44.538;18.532;2023-09-19T05:00:14;47.33;;;20.83;;
80926;SDS011;70385;44.538;18.532;2023-09-19T05:02:42;39.22;;;20.50;;
80926;SDS011;70385;44.538;18.532;2023-09-19T05:05:09;33.92;;;19.95;;
80926;SDS011;70385;44.538;18.532;2023-09-19T05:07:36;36.00;;;20.20;;
80926;SDS011;70385;44.538;18.532;2023-09-19T05:10:08;27.05;;;18.50;;
80926;SDS011;70385;44.538;18.532;2023-09-19T05:12:34;27.88;;;17.15;;
80926;SDS011;70385;44.538;18.532;2023-09-19T05:15:02;25.02;;;16.95;;
80926;SDS011;70385;44.538;18.532;2023-09-19T05:17:39;30.50;;;18.48;;
80926;SDS011;70385;44.538;18.532;2023-09-19T05:20:06;32.85;;;18.27;;
80926;SDS011;70385;44.538;18.532;2023-09-19T05:23:00;35.33;;;17.88;;
80926;SDS011;70385;44.538;18.532;2023-09-19T05:25:34;37.78;;;19.27;;
80926;SDS011;70385;44.538;18.532;2023-09-19T05:28:08;35.33;;;18.17;;
80926;SDS011;70385;44.538;18.532;2023-09-19T05:30:37;28.38;;;18.02;;
80926;SDS011;70385;44.538;18.532;2023-09-19T05:33:07;27.35;;;17.80;;
80926;SDS011;70385;44.538;18.532;2023-09-19T05:35:33;24.58;;;17.25;;
80926;SDS011;70385;44.538;18.532;2023-09-19T05:37:59;22.00;;;16.33;;
80926;SDS011;70385;44.538;18.532;2023-09-19T05:40:25;26.92;;;16.58;;
80926;SDS011;70385;44.538;18.532;2023-09-19T05:42:53;33.75;;;18.00;;
80926;SDS011;70385;44.538;18.532;2023-09-19T05:45:19;26.02;;;18.33;;
80926;SDS011;70385;44.538;18.532;2023-09-19T05:47:51;32.25;;;19.65;;
80926;SDS011;70385;44.538;18.532;2023-09-19T05:50:20;30.05;;;19.27;;
80926;SDS011;70385;44.538;18.532;2023-09-19T05:52:51;29.55;;;19.92;;
80926;SDS011;70385;44.538;18.532;2023-09-19T05:55:18;31.13;;;19.58;;
80926;SDS011;70385;44.538;18.532;2023-09-19T05:57:43;30.10;;;20.08;;
80926;SDS011;70385;44.538;18.532;2023-09-19T06:00:22;29.77;;;18.92;;
80926;SDS011;70385;44.538;18.532;2023-09-19T06:02:50;34.55;;;20.75;;
80926;SDS011;70385;44.538;18.532;2023-09-19T06:05:21;30.85;;;18.70;;
80926;SDS011;70385;44.538;18.532;2023-09-19T06:07:48;28.75;;;17.13;;
80926;SDS011;70385;44.538;18.532;2023-09-19T06:10:18;27.70;;;18.50;;
80926;SDS011;70385;44.538;18.532;2023-09-19T06:12:46;25.88;;;18.48;;
80926;SDS011;70385;44.538;18.532;2023-09-19T06:15:14;28.60;;;16.77;;
80926;SDS011;70385;44.538;18.532;2023-09-19T06:17:47;26.60;;;17.38;;
80926;SDS011;70385;44.538;18.532;2023-09-19T06:20:14;27.23;;;16.73;;
80926;SDS011;70385;44.538;18.532;2023-09-19T06:22:55;27.40;;;17.70;;
80926;SDS011;70385;44.538;18.532;2023-09-19T06:25:23;28.77;;;16.63;;
80926;SDS011;70385;44.538;18.532;2023-09-19T06:27:49;26.67;;;16.73;;
80926;SDS011;70385;44.538;18.532;2023-09-19T06:30:20;21.85;;;15.70;;
80926;SDS011;70385;44.538;18.532;2023-09-19T06:32:48;35.13;;;15.65;;
80926;SDS011;70385;44.538;18.532;2023-09-19T06:35:18;24.48;;;14.60;;
80926;SDS011;70385;44.538;18.532;2023-09-19T06:37:45;21.70;;;14.77;;
80926;SDS011;70385;44.538;18.532;2023-09-19T06:40:20;25.75;;;14.82;;
80926;SDS011;70385;44.538;18.532;2023-09-19T06:42:50;19.30;;;13.45;;
80926;SDS011;70385;44.538;18.532;2023-09-19T06:45:27;27.60;;;13.57;;
80926;SDS011;70385;44.538;18.532;2023-09-19T06:48:00;20.65;;;12.90;;
80926;SDS011;70385;44.538;18.532;2023-09-19T06:50:30;23.25;;;12.55;;
80926;SDS011;70385;44.538;18.532;2023-09-19T06:52:58;19.58;;;11.57;;
80926;SDS011;70385;44.538;18.532;2023-09-19T06:55:26;19.05;;;13.82;;
80926;SDS011;70385;44.538;18.532;2023-09-19T06:58:00;22.90;;;12.63;;
80926;SDS011;70385;44.538;18.532;2023-09-19T07:00:27;18.95;;;12.65;;
80926;SDS011;70385;44.538;18.532;2023-09-19T07:02:59;22.50;;;12.32;;
80926;SDS011;70385;44.538;18.532;2023-09-19T07:05:31;26.45;;;12.60;;
80926;SDS011;70385;44.538;18.532;2023-09-19T07:08:01;23.38;;;13.40;;
80926;SDS011;70385;44.538;18.532;2023-09-19T07:10:31;25.70;;;12.65;;
80926;SDS011;70385;44.538;18.532;2023-09-19T07:13:00;22.13;;;12.15;;
80926;SDS011;70385;44.538;18.532;2023-09-19T07:15:37;21.80;;;11.73;;
80926;SDS011;70385;44.538;18.532;2023-09-19T07:18:14;23.73;;;13.63;;
80926;SDS011;70385;44.538;18.532;2023-09-19T07:20:45;25.05;;;13.05;;
80926;SDS011;70385;44.538;18.532;2023-09-19T07:23:20;25.00;;;13.48;;
80926;SDS011;70385;44.538;18.532;2023-09-19T07:25:56;25.00;;;12.43;;
80926;SDS011;70385;44.538;18.532;2023-09-19T07:28:24;30.50;;;14.23;;
80926;SDS011;70385;44.538;18.532;2023-09-19T07:30:52;31.02;;;12.48;;
80926;SDS011;70385;44.538;18.532;2023-09-19T07:33:20;18.85;;;12.23;;
80926;SDS011;70385;44.538;18.532;2023-09-19T07:35:50;36.08;;;13.95;;
80926;SDS011;70385;44.538;18.532;2023-09-19T07:38:17;33.20;;;13.98;;
80926;SDS011;70385;44.538;18.532;2023-09-19T07:40:52;35.85;;;14.90;;
80926;SDS011;70385;44.538;18.532;2023-09-19T07:43:35;45.83;;;16.73;;
80926;SDS011;70385;44.538;18.532;2023-09-19T07:46:08;64.47;;;16.20;;
80926;SDS011;70385;44.538;18.532;2023-09-19T07:48:34;31.25;;;13.57;;
80926;SDS011;70385;44.538;18.532;2023-09-19T07:51:06;24.65;;;10.98;;
80926;SDS011;70385;44.538;18.532;2023-09-19T07:53:34;26.83;;;11.45;;
80926;SDS011;70385;44.538;18.532;2023-09-19T07:56:02;18.63;;;8.93;;
80926;SDS011;70385;44.538;18.532;2023-09-19T07:58:33;16.75;;;8.80;;
80926;SDS011;70385;44.538;18.532;2023-09-19T08:01:03;25.20;;;8.23;;
80926;SDS011;70385;44.538;18.532;2023-09-19T08:03:32;21.85;;;8.32;;
80926;SDS011;70385;44.538;18.532;2023-09-19T08:06:12;26.50;;;8.07;;
80926;SDS011;70385;44.538;18.532;2023-09-19T08:08:42;18.10;;;7.85;;
80926;SDS011;70385;44.538;18.532;2023-09-19T08:11:13;23.45;;;7.65;;
80926;SDS011;70385;44.538;18.532;2023-09-19T08:13:41;20.50;;;7.70;;
80926;SDS011;70385;44.538;18.532;2023-09-19T08:16:12;20.13;;;7.90;;
80926;SDS011;70385;44.538;18.532;2023-09-19T08:18:51;23.25;;;9.02;;
80926;SDS011;70385;44.538;18.532;2023-09-19T08:21:21;23.20;;;7.50;;
80926;SDS011;70385;44.538;18.532;2023-09-19T08:23:54;21.60;;;7.07;;
80926;SDS011;70385;44.538;18.532;2023-09-19T08:26:28;17.65;;;6.93;;
80926;SDS011;70385;44.538;18.532;2023-09-19T08:28:58;20.60;;;7.72;;
80926;SDS011;70385;44.538;18.532;2023-09-19T08:31:36;23.45;;;7.70;;
80926;SDS011;70385;44.538;18.532;2023-09-19T08:34:02;26.85;;;7.47;;
80926;SDS011;70385;44.538;18.532;2023-09-19T08:36:28;29.45;;;7.45;;
80926;SDS011;70385;44.538;18.532;2023-09-19T08:38:59;24.80;;;7.55;;
80926;SDS011;70385;44.538;18.532;2023-09-19T08:41:32;17.40;;;7.10;;
80926;SDS011;70385;44.538;18.532;2023-09-19T08:44:03;21.63;;;6.65;;
80926;SDS011;70385;44.538;18.532;2023-09-19T08:46:42;17.30;;;6.97;;
80926;SDS011;70385;44.538;18.532;2023-09-19T08:52:20;17.63;;;6.65;;
80926;SDS011;70385;44.538;18.532;2023-09-19T08:54:51;17.25;;;6.60;;
80926;SDS011;70385;44.538;18.532;2023-09-19T08:57:21;25.33;;;7.38;;
80926;SDS011;70385;44.538;18.532;2023-09-19T08:59:50;26.40;;;6.70;;
80926;SDS011;70385;44.538;18.532;2023-09-19T09:02:19;19.58;;;6.68;;
80926;SDS011;70385;44.538;18.532;2023-09-19T09:04:54;20.80;;;6.82;;
80926;SDS011;70385;44.538;18.532;2023-09-19T09:07:26;22.08;;;6.93;;
80926;SDS011;70385;44.538;18.532;2023-09-19T09:10:05;24.00;;;6.88;;
80926;SDS011;70385;44.538;18.532;2023-09-19T09:12:32;24.08;;;6.30;;
80926;SDS011;70385;44.538;18.532;2023-09-19T09:15:00;27.83;;;6.00;;
80926;SDS011;70385;44.538;18.532;2023-09-19T09:17:31;22.65;;;5.90;;
80926;SDS011;70385;44.538;18.532;2023-09-19T09:19:57;30.80;;;7.10;;
80926;SDS011;70385;44.538;18.532;2023-09-19T09:22:26;26.45;;;5.90;;
80926;SDS011;70385;44.538;18.532;2023-09-19T09:24:55;38.78;;;6.50;;
80926;SDS011;70385;44.538;18.532;2023-09-19T09:27:30;30.77;;;5.53;;
80926;SDS011;70385;44.538;18.532;2023-09-19T09:29:58;23.75;;;4.63;;
80926;SDS011;70385;44.538;18.532;2023-09-19T09:32:29;27.50;;;5.20;;
80926;SDS011;70385;44.538;18.532;2023-09-19T09:35:01;27.10;;;4.93;;
80926;SDS011;70385;44.538;18.532;2023-09-19T09:37:30;30.13;;;5.53;;
80926;SDS011;70385;44.538;18.532;2023-09-19T09:39:57;23.70;;;4.63;;
80926;SDS011;70385;44.538;18.532;2023-09-19T09:42:44;24.17;;;4.80;;
80926;SDS011;70385;44.538;18.532;2023-09-19T09:45:18;27.55;;;6.43;;
80926;SDS011;70385;44.538;18.532;2023-09-19T09:48:04;25.27;;;5.67;;
80926;SDS011;70385;44.538;18.532;2023-09-19T09:50:54;29.77;;;5.00;;
80926;SDS011;70385;44.538;18.532;2023-09-19T09:53:29;27.90;;;4.68;;
80926;SDS011;70385;44.538;18.532;2023-09-19T10:01:11;20.15;;;4.30;;
80926;SDS011;70385;44.538;18.532;2023-09-19T10:03:45;27.60;;;5.72;;
80926;SDS011;70385;44.538;18.532;2023-09-19T10:06:15;21.08;;;5.65;;
80926;SDS011;70385;44.538;18.532;2023-09-19T10:11:47;26.50;;;4.95;;
80926;SDS011;70385;44.538;18.532;2023-09-19T10:14:50;30.95;;;5.95;;
80926;SDS011;70385;44.538;18.532;2023-09-19T10:17:22;22.50;;;5.57;;
80926;SDS011;70385;44.538;18.532;2023-09-19T10:19:55;29.13;;;6.10;;
80926;SDS011;70385;44.538;18.532;2023-09-19T10:22:29;31.92;;;6.15;;
80926;SDS011;70385;44.538;18.532;2023-09-19T10:24:57;25.70;;;6.25;;
80926;SDS011;70385;44.538;18.532;2023-09-19T10:27:26;37.42;;;6.90;;
80926;SDS011;70385;44.538;18.532;2023-09-19T10:29:57;25.50;;;5.00;;
80926;SDS011;70385;44.538;18.532;2023-09-19T10:32:36;23.83;;;6.38;;
80926;SDS011;70385;44.538;18.532;2023-09-19T10:35:16;24.85;;;7.20;;
80926;SDS011;70385;44.538;18.532;2023-09-19T10:37:45;25.73;;;6.20;;
80926;SDS011;70385;44.538;18.532;2023-09-19T10:40:15;22.38;;;6.18;;
80926;SDS011;70385;44.538;18.532;2023-09-19T10:42:44;27.75;;;4.82;;
80926;SDS011;70385;44.538;18.532;2023-09-19T10:45:14;25.35;;;5.90;;
80926;SDS011;70385;44.538;18.532;2023-09-19T10:47:48;24.63;;;5.93;;
80926;SDS011;70385;44.538;18.532;2023-09-19T10:50:22;16.60;;;4.38;;
80926;SDS011;70385;44.538;18.532;2023-09-19T10:52:59;26.23;;;5.72;;
80926;SDS011;70385;44.538;18.532;2023-09-19T10:55:56;28.17;;;6.22;;
80926;SDS011;70385;44.538;18.532;2023-09-19T10:58:38;23.60;;;5.10;;
80926;SDS011;70385;44.538;18.532;2023-09-19T11:01:10;27.85;;;5.28;;
80926;SDS011;70385;44.538;18.532;2023-09-19T11:03:49;27.63;;;5.35;;
80926;SDS011;70385;44.538;18.532;2023-09-19T11:09:55;18.42;;;5.00;;
80926;SDS011;70385;44.538;18.532;2023-09-19T11:16:02;57.15;;;5.32;;
80926;SDS011;70385;44.538;18.532;2023-09-19T11:24:42;28.02;;;5.65;;
80926;SDS011;70385;44.538;18.532;2023-09-19T11:27:08;32.55;;;6.20;;
80926;SDS011;70385;44.538;18.532;2023-09-19T11:29:44;25.95;;;4.97;;
80926;SDS011;70385;44.538;18.532;2023-09-19T11:39:03;21.27;;;6.32;;
80926;SDS011;70385;44.538;18.532;2023-09-19T11:41:46;21.70;;;5.20;;
80926;SDS011;70385;44.538;18.532;2023-09-19T11:44:40;20.25;;;5.68;;
80926;SDS011;70385;44.538;18.532;2023-09-19T11:47:10;22.40;;;7.30;;
80926;SDS011;70385;44.538;18.532;2023-09-19T11:49:50;19.42;;;6.25;;
80926;SDS011;70385;44.538;18.532;2023-09-19T11:52:46;22.27;;;6.10;;
80926;SDS011;70385;44.538;18.532;2023-09-19T11:55:29;24.13;;;7.13;;
80926;SDS011;70385;44.538;18.532;2023-09-19T11:57:58;19.75;;;7.13;;
80926;SDS011;70385;44.538;18.532;2023-09-19T12:00:25;24.35;;;9.98;;
80926;SDS011;70385;44.538;18.532;2023-09-19T12:02:54;26.33;;;9.60;;
80926;SDS011;70385;44.538;18.532;2023-09-19T12:05:30;13.90;;;5.77;;
80926;SDS011;70385;44.538;18.532;2023-09-19T12:07:59;16.58;;;6.47;;
80926;SDS011;70385;44.538;18.532;2023-09-19T12:10:31;22.92;;;5.18;;
80926;SDS011;70385;44.538;18.532;2023-09-19T12:12:59;24.92;;;6.03;;
80926;SDS011;70385;44.538;18.532;2023-09-19T12:15:29;16.13;;;5.53;;
80926;SDS011;70385;44.538;18.532;2023-09-19T12:18:04;18.92;;;4.95;;
80926;SDS011;70385;44.538;18.532;2023-09-19T12:20:43;17.25;;;5.25;;
80926;SDS011;70385;44.538;18.532;2023-09-19T12:23:16;14.35;;;4.22;;
80926;SDS011;70385;44.538;18.532;2023-09-19T12:26:11;14.43;;;4.10;;
80926;SDS011;70385;44.538;18.532;2023-09-19T12:29:21;19.73;;;4.93;;
80926;SDS011;70385;44.538;18.532;2023-09-19T12:32:36;13.85;;;4.40;;
80926;SDS011;70385;44.538;18.532;2023-09-19T12:35:06;16.75;;;4.93;;
80926;SDS011;70385;44.538;18.532;2023-09-19T12:37:51;11.98;;;4.30;;
80926;SDS011;70385;44.538;18.532;2023-09-19T12:40:39;10.95;;;4.00;;
80926;SDS011;70385;44.538;18.532;2023-09-19T12:43:08;18.50;;;4.22;;
80926;SDS011;70385;44.538;18.532;2023-09-19T12:45:46;19.13;;;4.53;;
80926;SDS011;70385;44.538;18.532;2023-09-19T12:48:28;15.00;;;4.43;;
80926;SDS011;70385;44.538;18.532;2023-09-19T12:51:04;18.08;;;4.75;;
80926;SDS011;70385;44.538;18.532;2023-09-19T12:53:47;18.88;;;4.63;;
80926;SDS011;70385;44.538;18.532;2023-09-19T12:56:30;11.40;;;4.38;;
80926;SDS011;70385;44.538;18.532;2023-09-19T12:59:18;12.50;;;4.43;;
80926;SDS011;70385;44.538;18.532;2023-09-19T13:02:18;16.08;;;4.32;;
80926;SDS011;70385;44.538;18.532;2023-09-19T13:04:58;15.05;;;3.72;;
80926;SDS011;70385;44.538;18.532;2023-09-19T13:11:14;12.80;;;3.85;;
80926;SDS011;70385;44.538;18.532;2023-09-19T13:13:45;15.05;;;4.10;;
80926;SDS011;70385;44.538;18.532;2023-09-19T13:16:21;16.95;;;3.58;;
80926;SDS011;70385;44.538;18.532;2023-09-19T13:18:55;14.48;;;3.50;;
80926;SDS011;70385;44.538;18.532;2023-09-19T13:21:31;10.48;;;3.13;;
80926;SDS011;70385;44.538;18.532;2023-09-19T13:24:19;13.05;;;3.85;;
80926;SDS011;70385;44.538;18.532;2023-09-19T13:26:56;13.95;;;3.45;;
80926;SDS011;70385;44.538;18.532;2023-09-19T13:29:24;14.00;;;3.58;;
80926;SDS011;70385;44.538;18.532;2023-09-19T13:31:58;14.90;;;3.38;;
80926;SDS011;70385;44.538;18.532;2023-09-19T13:34:28;17.83;;;4.13;;
80926;SDS011;70385;44.538;18.532;2023-09-19T13:36:57;26.50;;;5.15;;
80926;SDS011;70385;44.538;18.532;2023-09-19T13:39:24;22.33;;;5.60;;
80926;SDS011;70385;44.538;18.532;2023-09-19T13:45:54;29.33;;;6.43;;
80926;SDS011;70385;44.538;18.532;2023-09-19T13:51:30;18.80;;;6.70;;
80926;SDS011;70385;44.538;18.532;2023-09-19T13:54:00;23.52;;;6.63;;
80926;SDS011;70385;44.538;18.532;2023-09-19T13:57:39;20.10;;;6.70;;
80926;SDS011;70385;44.538;18.532;2023-09-19T14:00:06;22.65;;;6.93;;
80926;SDS011;70385;44.538;18.532;2023-09-19T14:02:40;20.92;;;6.20;;
80926;SDS011;70385;44.538;18.532;2023-09-19T14:05:09;22.00;;;6.40;;
80926;SDS011;70385;44.538;18.532;2023-09-19T14:07:43;19.45;;;6.25;;
80926;SDS011;70385;44.538;18.532;2023-09-19T14:10:10;20.02;;;6.53;;
80926;SDS011;70385;44.538;18.532;2023-09-19T14:12:38;23.00;;;7.00;;
80926;SDS011;70385;44.538;18.532;2023-09-19T14:15:13;15.20;;;6.18;;
80926;SDS011;70385;44.538;18.532;2023-09-19T14:17:42;29.98;;;6.68;;
80926;SDS011;70385;44.538;18.532;2023-09-19T14:20:13;19.55;;;6.95;;
80926;SDS011;70385;44.538;18.532;2023-09-19T14:22:40;19.85;;;6.72;;
80926;SDS011;70385;44.538;18.532;2023-09-19T14:25:08;22.77;;;7.05;;
80926;SDS011;70385;44.538;18.532;2023-09-19T14:27:37;18.95;;;6.75;;
80926;SDS011;70385;44.538;18.532;2023-09-19T14:30:06;20.63;;;7.10;;
80926;SDS011;70385;44.538;18.532;2023-09-19T14:32:32;16.75;;;6.30;;
80926;SDS011;70385;44.538;18.532;2023-09-19T14:35:00;20.45;;;7.75;;
80926;SDS011;70385;44.538;18.532;2023-09-19T14:37:27;26.55;;;6.75;;
80926;SDS011;70385;44.538;18.532;2023-09-19T14:39:53;18.00;;;6.72;;
80926;SDS011;70385;44.538;18.532;2023-09-19T14:42:22;19.67;;;6.78;;
80926;SDS011;70385;44.538;18.532;2023-09-19T14:44:48;22.02;;;6.32;;
80926;SDS011;70385;44.538;18.532;2023-09-19T14:47:15;18.55;;;7.53;;
80926;SDS011;70385;44.538;18.532;2023-09-19T14:49:42;22.05;;;7.22;;
80926;SDS011;70385;44.538;18.532;2023-09-19T14:52:09;15.75;;;7.28;;
80926;SDS011;70385;44.538;18.532;2023-09-19T14:54:44;24.13;;;7.13;;
80926;SDS011;70385;44.538;18.532;2023-09-19T14:57:16;20.45;;;7.20;;
80926;SDS011;70385;44.538;18.532;2023-09-19T14:59:42;27.48;;;7.43;;
80926;SDS011;70385;44.538;18.532;2023-09-19T15:02:08;19.90;;;7.05;;
80926;SDS011;70385;44.538;18.532;2023-09-19T15:04:40;21.95;;;6.43;;
80926;SDS011;70385;44.538;18.532;2023-09-19T15:07:07;20.20;;;6.30;;
80926;SDS011;70385;44.538;18.532;2023-09-19T15:09:34;20.25;;;7.07;;
80926;SDS011;70385;44.538;18.532;2023-09-19T15:12:01;18.23;;;6.78;;
80926;SDS011;70385;44.538;18.532;2023-09-19T15:14:27;14.70;;;7.10;;
80926;SDS011;70385;44.538;18.532;2023-09-19T15:16:55;15.52;;;6.22;;
80926;SDS011;70385;44.538;18.532;2023-09-19T15:19:21;19.55;;;6.85;;
80926;SDS011;70385;44.538;18.532;2023-09-19T15:21:48;23.65;;;6.32;;
80926;SDS011;70385;44.538;18.532;2023-09-19T15:24:17;23.02;;;6.68;;
80926;SDS011;70385;44.538;18.532;2023-09-19T15:26:43;21.45;;;6.63;;
80926;SDS011;70385;44.538;18.532;2023-09-19T15:29:14;22.15;;;7.03;;
80926;SDS011;70385;44.538;18.532;2023-09-19T15:31:41;16.02;;;5.82;;
80926;SDS011;70385;44.538;18.532;2023-09-19T15:34:07;16.30;;;6.15;;
80926;SDS011;70385;44.538;18.532;2023-09-19T15:36:40;25.42;;;6.93;;
80926;SDS011;70385;44.538;18.532;2023-09-19T15:39:11;25.65;;;7.15;;
80926;SDS011;70385;44.538;18.532;2023-09-19T15:41:40;22.00;;;7.55;;
80926;SDS011;70385;44.538;18.532;2023-09-19T15:44:15;15.68;;;6.40;;